sensor_id;sensor_type;location;lat;lon;timestamp;temperature;humidity
298;DHT22;133;49.626;9.680;2023-05-29T00:02:15;15.30;72.00
298;DHT22;133;49.626;9.680;2023-05-29T00:04:40;15.20;72.20
298;DHT22;133;49.626;9.680;2023-05-29T00:07:06;15.10;72.40
298;DHT22;133;49.626;9.680;2023-05-29T00:09:32;15.10;72.40
298;DHT22;133;49.626;9.680;2023-05-29T00:11:57;15.00;72.50
298;DHT22;133;49.626;9.680;2023-05-29T00:14:23;14.90;73.00
298;DHT22;133;49.626;9.680;2023-05-29T00:16:50;14.80;72.90
298;DHT22;133;49.626;9.680;2023-05-29T00:19:16;14.70;73.00
298;DHT22;133;49.626;9.680;2023-05-29T00:21:45;14.70;73.30
298;DHT22;133;49.626;9.680;2023-05-29T00:24:16;14.60;73.40
298;DHT22;133;49.626;9.680;2023-05-29T00:26:42;14.50;73.70
298;DHT22;133;49.626;9.680;2023-05-29T00:29:08;14.50;74.00
298;DHT22;133;49.626;9.680;2023-05-29T00:31:34;14.40;73.90
298;DHT22;133;49.626;9.680;2023-05-29T00:34:01;14.50;73.90
298;DHT22;133;49.626;9.680;2023-05-29T00:36:27;14.40;74.20
298;DHT22;133;49.626;9.680;2023-05-29T00:38:54;14.40;74.20
298;DHT22;133;49.626;9.680;2023-05-29T00:41:19;14.30;74.30
298;DHT22;133;49.626;9.680;2023-05-29T00:43:45;14.30;74.80
298;DHT22;133;49.626;9.680;2023-05-29T00:46:13;14.30;75.40
298;DHT22;133;49.626;9.680;2023-05-29T00:48:42;14.30;75.50
298;DHT22;133;49.626;9.680;2023-05-29T00:51:09;14.20;75.50
298;DHT22;133;49.626;9.680;2023-05-29T00:53:36;14.10;75.50
298;DHT22;133;49.626;9.680;2023-05-29T00:56:03;14.10;76.50
298;DHT22;133;49.626;9.680;2023-05-29T00:58:30;14.00;76.30
298;DHT22;133;49.626;9.680;2023-05-29T01:00:55;14.00;76.40
298;DHT22;133;49.626;9.680;2023-05-29T01:03:21;14.00;76.40
298;DHT22;133;49.626;9.680;2023-05-29T01:05:48;14.00;76.40
298;DHT22;133;49.626;9.680;2023-05-29T01:08:14;13.90;76.30
298;DHT22;133;49.626;9.680;2023-05-29T01:10:40;13.80;77.00
298;DHT22;133;49.626;9.680;2023-05-29T01:13:25;13.80;76.90
298;DHT22;133;49.626;9.680;2023-05-29T01:16:08;13.80;76.90
298;DHT22;133;49.626;9.680;2023-05-29T01:18:57;13.80;77.20
298;DHT22;133;49.626;9.680;2023-05-29T01:24:36;13.70;77.70
298;DHT22;133;49.626;9.680;2023-05-29T01:27:07;13.70;77.80
298;DHT22;133;49.626;9.680;2023-05-29T01:29:38;13.60;78.00
298;DHT22;133;49.626;9.680;2023-05-29T01:32:05;13.60;78.10
298;DHT22;133;49.626;9.680;2023-05-29T01:34:31;13.50;78.70
298;DHT22;133;49.626;9.680;2023-05-29T01:36:56;13.40;78.30
298;DHT22;133;49.626;9.680;2023-05-29T01:39:23;13.40;78.60
298;DHT22;133;49.626;9.680;2023-05-29T01:41:50;13.40;78.60
298;DHT22;133;49.626;9.680;2023-05-29T01:44:17;13.40;78.40
298;DHT22;133;49.626;9.680;2023-05-29T01:46:43;13.40;78.20
298;DHT22;133;49.626;9.680;2023-05-29T01:49:11;13.20;78.70
298;DHT22;133;49.626;9.680;2023-05-29T01:51:40;13.20;78.40
298;DHT22;133;49.626;9.680;2023-05-29T01:54:06;13.10;78.90
298;DHT22;133;49.626;9.680;2023-05-29T01:56:33;13.10;79.20
298;DHT22;133;49.626;9.680;2023-05-29T01:59:00;13.10;79.40
298;DHT22;133;49.626;9.680;2023-05-29T02:01:26;13.10;79.50
298;DHT22;133;49.626;9.680;2023-05-29T02:03:52;13.00;79.80
298;DHT22;133;49.626;9.680;2023-05-29T02:06:17;12.90;79.80
298;DHT22;133;49.626;9.680;2023-05-29T02:08:43;12.90;79.90
298;DHT22;133;49.626;9.680;2023-05-29T02:11:09;12.90;80.20
298;DHT22;133;49.626;9.680;2023-05-29T02:13:35;12.80;80.10
298;DHT22;133;49.626;9.680;2023-05-29T02:16:00;12.80;80.00
298;DHT22;133;49.626;9.680;2023-05-29T02:18:26;12.70;80.00
298;DHT22;133;49.626;9.680;2023-05-29T02:20:51;12.60;80.20
298;DHT22;133;49.626;9.680;2023-05-29T02:23:17;12.50;80.80
298;DHT22;133;49.626;9.680;2023-05-29T02:25:44;12.50;80.90
298;DHT22;133;49.626;9.680;2023-05-29T02:28:10;12.40;81.40
298;DHT22;133;49.626;9.680;2023-05-29T02:30:36;12.40;81.40
298;DHT22;133;49.626;9.680;2023-05-29T02:33:01;12.40;81.50
298;DHT22;133;49.626;9.680;2023-05-29T02:35:27;12.30;82.00
298;DHT22;133;49.626;9.680;2023-05-29T02:37:53;12.30;82.00
298;DHT22;133;49.626;9.680;2023-05-29T02:40:19;12.20;82.10
298;DHT22;133;49.626;9.680;2023-05-29T02:42:46;12.20;82.00
298;DHT22;133;49.626;9.680;2023-05-29T02:45:12;12.20;81.80
298;DHT22;133;49.626;9.680;2023-05-29T02:47:38;12.20;81.80
298;DHT22;133;49.626;9.680;2023-05-29T02:50:04;12.10;82.00
298;DHT22;133;49.626;9.680;2023-05-29T02:52:31;12.10;82.10
298;DHT22;133;49.626;9.680;2023-05-29T02:54:57;12.10;82.00
298;DHT22;133;49.626;9.680;2023-05-29T02:57:24;12.00;82.80
298;DHT22;133;49.626;9.680;2023-05-29T02:59:50;12.00;82.60
298;DHT22;133;49.626;9.680;2023-05-29T03:02:17;11.90;82.90
298;DHT22;133;49.626;9.680;2023-05-29T03:04:43;11.90;82.70
298;DHT22;133;49.626;9.680;2023-05-29T03:07:09;11.80;82.90
298;DHT22;133;49.626;9.680;2023-05-29T03:09:35;11.70;83.20
298;DHT22;133;49.626;9.680;2023-05-29T03:12:01;11.80;83.00
298;DHT22;133;49.626;9.680;2023-05-29T03:14:27;11.80;82.90
298;DHT22;133;49.626;9.680;2023-05-29T03:16:53;11.70;83.10
298;DHT22;133;49.626;9.680;2023-05-29T03:19:19;11.70;83.30
298;DHT22;133;49.626;9.680;2023-05-29T03:21:45;11.70;83.20
298;DHT22;133;49.626;9.680;2023-05-29T03:24:11;11.60;83.60
298;DHT22;133;49.626;9.680;2023-05-29T03:26:39;11.50;83.90
298;DHT22;133;49.626;9.680;2023-05-29T03:29:04;11.50;83.90
298;DHT22;133;49.626;9.680;2023-05-29T03:31:30;11.50;83.70
298;DHT22;133;49.626;9.680;2023-05-29T03:33:56;11.50;83.50
298;DHT22;133;49.626;9.680;2023-05-29T03:36:22;11.40;83.60
298;DHT22;133;49.626;9.680;2023-05-29T03:38:47;11.40;83.80
298;DHT22;133;49.626;9.680;2023-05-29T03:41:13;11.40;83.80
298;DHT22;133;49.626;9.680;2023-05-29T03:43:39;11.40;83.70
298;DHT22;133;49.626;9.680;2023-05-29T03:46:04;11.40;83.60
298;DHT22;133;49.626;9.680;2023-05-29T03:48:30;11.30;84.30
298;DHT22;133;49.626;9.680;2023-05-29T03:50:55;11.20;84.30
298;DHT22;133;49.626;9.680;2023-05-29T03:53:21;11.20;84.40
298;DHT22;133;49.626;9.680;2023-05-29T03:55:47;11.20;84.60
298;DHT22;133;49.626;9.680;2023-05-29T03:58:13;11.20;84.60
298;DHT22;133;49.626;9.680;2023-05-29T04:00:39;11.30;84.60
298;DHT22;133;49.626;9.680;2023-05-29T04:03:05;11.30;84.50
298;DHT22;133;49.626;9.680;2023-05-29T04:05:31;11.30;84.70
298;DHT22;133;49.626;9.680;2023-05-29T04:07:57;11.30;85.10
298;DHT22;133;49.626;9.680;2023-05-29T04:10:22;11.30;84.90
298;DHT22;133;49.626;9.680;2023-05-29T04:12:49;11.30;84.90
298;DHT22;133;49.626;9.680;2023-05-29T04:15:15;11.30;84.90
298;DHT22;133;49.626;9.680;2023-05-29T04:17:40;11.40;84.60
298;DHT22;133;49.626;9.680;2023-05-29T04:20:06;11.40;84.80
298;DHT22;133;49.626;9.680;2023-05-29T04:22:37;11.40;84.80
298;DHT22;133;49.626;9.680;2023-05-29T04:25:06;11.50;85.00
298;DHT22;133;49.626;9.680;2023-05-29T04:27:34;11.50;85.20
298;DHT22;133;49.626;9.680;2023-05-29T04:30:07;11.50;85.50
298;DHT22;133;49.626;9.680;2023-05-29T04:32:33;11.50;85.80
298;DHT22;133;49.626;9.680;2023-05-29T04:35:02;11.50;85.70
298;DHT22;133;49.626;9.680;2023-05-29T04:37:30;11.60;85.60
298;DHT22;133;49.626;9.680;2023-05-29T04:39:56;11.60;85.00
298;DHT22;133;49.626;9.680;2023-05-29T04:42:23;11.50;84.90
298;DHT22;133;49.626;9.680;2023-05-29T04:44:51;11.60;84.90
298;DHT22;133;49.626;9.680;2023-05-29T04:47:18;11.60;85.00
298;DHT22;133;49.626;9.680;2023-05-29T04:49:44;11.60;85.00
298;DHT22;133;49.626;9.680;2023-05-29T04:52:14;11.60;85.10
298;DHT22;133;49.626;9.680;2023-05-29T04:54:40;11.60;85.20
298;DHT22;133;49.626;9.680;2023-05-29T04:57:06;11.70;85.40
298;DHT22;133;49.626;9.680;2023-05-29T04:59:31;11.80;84.90
298;DHT22;133;49.626;9.680;2023-05-29T05:01:57;11.80;84.80
298;DHT22;133;49.626;9.680;2023-05-29T05:04:23;11.80;84.70
298;DHT22;133;49.626;9.680;2023-05-29T05:06:48;11.90;84.90
298;DHT22;133;49.626;9.680;2023-05-29T05:09:14;11.90;84.20
298;DHT22;133;49.626;9.680;2023-05-29T05:11:40;12.00;84.30
298;DHT22;133;49.626;9.680;2023-05-29T05:14:05;12.10;84.20
298;DHT22;133;49.626;9.680;2023-05-29T05:16:31;12.20;84.20
298;DHT22;133;49.626;9.680;2023-05-29T05:18:58;12.30;83.80
298;DHT22;133;49.626;9.680;2023-05-29T05:21:24;12.40;83.70
298;DHT22;133;49.626;9.680;2023-05-29T05:23:49;12.50;83.70
298;DHT22;133;49.626;9.680;2023-05-29T05:26:15;12.60;83.70
298;DHT22;133;49.626;9.680;2023-05-29T05:28:40;12.60;83.60
298;DHT22;133;49.626;9.680;2023-05-29T05:31:06;12.70;82.90
298;DHT22;133;49.626;9.680;2023-05-29T05:33:31;12.60;82.60
298;DHT22;133;49.626;9.680;2023-05-29T05:35:57;12.70;82.30
298;DHT22;133;49.626;9.680;2023-05-29T05:38:23;12.80;82.10
298;DHT22;133;49.626;9.680;2023-05-29T05:40:48;12.90;81.80
298;DHT22;133;49.626;9.680;2023-05-29T05:43:14;13.00;81.40
298;DHT22;133;49.626;9.680;2023-05-29T05:45:40;13.00;81.10
298;DHT22;133;49.626;9.680;2023-05-29T05:48:08;13.20;80.40
298;DHT22;133;49.626;9.680;2023-05-29T05:50:34;13.30;79.80
298;DHT22;133;49.626;9.680;2023-05-29T05:53:00;13.40;80.60
298;DHT22;133;49.626;9.680;2023-05-29T05:55:26;13.40;81.40
298;DHT22;133;49.626;9.680;2023-05-29T05:57:53;13.40;80.70
298;DHT22;133;49.626;9.680;2023-05-29T06:00:19;13.40;80.60
298;DHT22;133;49.626;9.680;2023-05-29T06:02:45;13.50;80.40
298;DHT22;133;49.626;9.680;2023-05-29T06:05:11;13.60;80.40
298;DHT22;133;49.626;9.680;2023-05-29T06:07:37;13.70;80.10
298;DHT22;133;49.626;9.680;2023-05-29T06:10:03;13.80;80.20
298;DHT22;133;49.626;9.680;2023-05-29T06:12:29;13.90;80.10
298;DHT22;133;49.626;9.680;2023-05-29T06:14:55;14.00;79.70
298;DHT22;133;49.626;9.680;2023-05-29T06:17:21;14.10;79.50
298;DHT22;133;49.626;9.680;2023-05-29T06:19:47;14.20;79.20
298;DHT22;133;49.626;9.680;2023-05-29T06:22:14;14.30;79.00
298;DHT22;133;49.626;9.680;2023-05-29T06:24:40;14.30;79.20
298;DHT22;133;49.626;9.680;2023-05-29T06:27:06;14.40;78.80
298;DHT22;133;49.626;9.680;2023-05-29T06:29:32;14.60;78.30
298;DHT22;133;49.626;9.680;2023-05-29T06:31:58;14.70;78.30
298;DHT22;133;49.626;9.680;2023-05-29T06:34:23;14.70;77.80
298;DHT22;133;49.626;9.680;2023-05-29T06:36:49;14.80;77.60
298;DHT22;133;49.626;9.680;2023-05-29T06:39:15;14.80;77.30
298;DHT22;133;49.626;9.680;2023-05-29T06:41:40;14.90;77.60
298;DHT22;133;49.626;9.680;2023-05-29T06:44:06;15.00;77.50
298;DHT22;133;49.626;9.680;2023-05-29T06:46:32;15.00;77.80
298;DHT22;133;49.626;9.680;2023-05-29T06:48:57;15.00;77.90
298;DHT22;133;49.626;9.680;2023-05-29T06:51:23;15.10;78.30
298;DHT22;133;49.626;9.680;2023-05-29T06:53:49;15.20;77.90
298;DHT22;133;49.626;9.680;2023-05-29T06:56:14;15.30;77.40
298;DHT22;133;49.626;9.680;2023-05-29T06:58:40;15.40;77.40
298;DHT22;133;49.626;9.680;2023-05-29T07:01:06;15.60;77.10
298;DHT22;133;49.626;9.680;2023-05-29T07:03:31;15.70;76.80
298;DHT22;133;49.626;9.680;2023-05-29T07:05:57;15.90;76.80
298;DHT22;133;49.626;9.680;2023-05-29T07:08:24;16.00;76.70
298;DHT22;133;49.626;9.680;2023-05-29T07:10:50;16.10;76.60
298;DHT22;133;49.626;9.680;2023-05-29T07:13:16;16.20;76.50
298;DHT22;133;49.626;9.680;2023-05-29T07:15:43;16.40;76.20
298;DHT22;133;49.626;9.680;2023-05-29T07:18:09;16.50;76.00
298;DHT22;133;49.626;9.680;2023-05-29T07:20:36;16.60;74.90
298;DHT22;133;49.626;9.680;2023-05-29T07:23:02;16.70;74.70
298;DHT22;133;49.626;9.680;2023-05-29T07:25:27;16.90;74.80
298;DHT22;133;49.626;9.680;2023-05-29T07:27:53;17.10;73.80
298;DHT22;133;49.626;9.680;2023-05-29T07:30:19;17.20;73.70
298;DHT22;133;49.626;9.680;2023-05-29T07:32:44;17.40;73.90
298;DHT22;133;49.626;9.680;2023-05-29T07:35:10;17.50;72.60
298;DHT22;133;49.626;9.680;2023-05-29T07:37:36;17.70;72.50
298;DHT22;133;49.626;9.680;2023-05-29T07:40:03;17.90;69.80
298;DHT22;133;49.626;9.680;2023-05-29T07:42:32;18.10;68.60
298;DHT22;133;49.626;9.680;2023-05-29T07:44:58;18.40;67.10
298;DHT22;133;49.626;9.680;2023-05-29T07:47:24;18.50;65.80
298;DHT22;133;49.626;9.680;2023-05-29T07:49:50;18.70;65.30
298;DHT22;133;49.626;9.680;2023-05-29T07:52:15;18.90;65.50
298;DHT22;133;49.626;9.680;2023-05-29T07:54:41;19.10;64.90
298;DHT22;133;49.626;9.680;2023-05-29T07:57:06;19.20;64.50
298;DHT22;133;49.626;9.680;2023-05-29T07:59:35;19.40;64.30
298;DHT22;133;49.626;9.680;2023-05-29T08:02:01;19.60;63.50
298;DHT22;133;49.626;9.680;2023-05-29T08:04:28;19.80;63.70
298;DHT22;133;49.626;9.680;2023-05-29T08:06:54;19.90;63.70
298;DHT22;133;49.626;9.680;2023-05-29T08:09:20;20.00;63.70
298;DHT22;133;49.626;9.680;2023-05-29T08:11:46;20.20;62.80
298;DHT22;133;49.626;9.680;2023-05-29T08:14:13;20.30;62.70
298;DHT22;133;49.626;9.680;2023-05-29T08:16:38;20.40;62.10
298;DHT22;133;49.626;9.680;2023-05-29T08:19:04;20.40;61.90
298;DHT22;133;49.626;9.680;2023-05-29T08:21:30;20.60;61.40
298;DHT22;133;49.626;9.680;2023-05-29T08:23:57;20.70;61.10
298;DHT22;133;49.626;9.680;2023-05-29T08:26:23;20.80;61.50
298;DHT22;133;49.626;9.680;2023-05-29T08:28:49;21.00;61.80
298;DHT22;133;49.626;9.680;2023-05-29T08:31:15;21.10;60.80
298;DHT22;133;49.626;9.680;2023-05-29T08:33:41;21.30;60.40
298;DHT22;133;49.626;9.680;2023-05-29T08:36:07;21.30;60.50
298;DHT22;133;49.626;9.680;2023-05-29T08:38:34;21.40;60.00
298;DHT22;133;49.626;9.680;2023-05-29T08:41:00;21.60;58.30
298;DHT22;133;49.626;9.680;2023-05-29T08:43:31;21.70;57.50
298;DHT22;133;49.626;9.680;2023-05-29T08:46:00;22.00;57.90
298;DHT22;133;49.626;9.680;2023-05-29T08:48:28;22.40;58.30
298;DHT22;133;49.626;9.680;2023-05-29T08:50:56;22.80;56.20
298;DHT22;133;49.626;9.680;2023-05-29T08:53:23;23.70;55.20
298;DHT22;133;49.626;9.680;2023-05-29T08:55:50;25.30;52.80
298;DHT22;133;49.626;9.680;2023-05-29T08:58:17;27.30;49.80
298;DHT22;133;49.626;9.680;2023-05-29T09:00:47;29.30;45.00
298;DHT22;133;49.626;9.680;2023-05-29T09:03:14;30.40;42.70
298;DHT22;133;49.626;9.680;2023-05-29T09:05:40;32.10;41.20
298;DHT22;133;49.626;9.680;2023-05-29T09:08:10;33.30;38.50
298;DHT22;133;49.626;9.680;2023-05-29T09:10:41;34.50;36.70
298;DHT22;133;49.626;9.680;2023-05-29T09:13:07;35.40;34.60
298;DHT22;133;49.626;9.680;2023-05-29T09:15:35;35.90;33.80
298;DHT22;133;49.626;9.680;2023-05-29T09:18:00;36.50;33.40
298;DHT22;133;49.626;9.680;2023-05-29T09:20:27;37.50;32.90
298;DHT22;133;49.626;9.680;2023-05-29T09:23:04;38.00;32.70
298;DHT22;133;49.626;9.680;2023-05-29T09:25:32;38.40;31.90
298;DHT22;133;49.626;9.680;2023-05-29T09:28:08;38.50;31.40
298;DHT22;133;49.626;9.680;2023-05-29T09:30:40;37.70;32.10
298;DHT22;133;49.626;9.680;2023-05-29T09:33:08;37.90;32.20
298;DHT22;133;49.626;9.680;2023-05-29T09:35:45;37.80;32.60
298;DHT22;133;49.626;9.680;2023-05-29T09:38:15;38.20;32.10
298;DHT22;133;49.626;9.680;2023-05-29T09:40:42;38.70;31.80
298;DHT22;133;49.626;9.680;2023-05-29T09:43:14;39.30;31.20
298;DHT22;133;49.626;9.680;2023-05-29T09:45:43;39.40;31.40
298;DHT22;133;49.626;9.680;2023-05-29T09:48:19;38.80;31.50
298;DHT22;133;49.626;9.680;2023-05-29T09:50:47;38.90;31.70
298;DHT22;133;49.626;9.680;2023-05-29T09:53:20;39.30;31.40
298;DHT22;133;49.626;9.680;2023-05-29T09:55:47;39.50;30.60
298;DHT22;133;49.626;9.680;2023-05-29T09:58:14;39.50;31.40
298;DHT22;133;49.626;9.680;2023-05-29T10:00:41;39.60;30.90
298;DHT22;133;49.626;9.680;2023-05-29T10:03:08;39.60;31.50
298;DHT22;133;49.626;9.680;2023-05-29T10:05:34;39.80;30.90
298;DHT22;133;49.626;9.680;2023-05-29T10:08:01;39.80;30.80
298;DHT22;133;49.626;9.680;2023-05-29T10:10:29;39.30;31.20
298;DHT22;133;49.626;9.680;2023-05-29T10:12:55;39.60;31.00
298;DHT22;133;49.626;9.680;2023-05-29T10:15:23;39.70;30.50
298;DHT22;133;49.626;9.680;2023-05-29T10:18:29;39.20;30.90
298;DHT22;133;49.626;9.680;2023-05-29T10:20:57;38.20;31.10
298;DHT22;133;49.626;9.680;2023-05-29T10:23:25;37.70;31.40
298;DHT22;133;49.626;9.680;2023-05-29T10:26:03;37.50;32.10
298;DHT22;133;49.626;9.680;2023-05-29T10:28:31;37.40;32.40
298;DHT22;133;49.626;9.680;2023-05-29T10:31:03;37.10;32.80
298;DHT22;133;49.626;9.680;2023-05-29T10:34:10;36.70;32.40
298;DHT22;133;49.626;9.680;2023-05-29T10:36:47;36.50;32.50
298;DHT22;133;49.626;9.680;2023-05-29T10:39:15;36.60;32.80
298;DHT22;133;49.626;9.680;2023-05-29T10:41:41;36.50;31.90
298;DHT22;133;49.626;9.680;2023-05-29T10:49:26;35.90;33.10
298;DHT22;133;49.626;9.680;2023-05-29T10:51:52;35.90;32.70
298;DHT22;133;49.626;9.680;2023-05-29T10:54:25;35.90;33.00
298;DHT22;133;49.626;9.680;2023-05-29T10:56:58;35.10;34.50
298;DHT22;133;49.626;9.680;2023-05-29T10:59:26;34.90;33.60
298;DHT22;133;49.626;9.680;2023-05-29T11:01:54;35.00;35.30
298;DHT22;133;49.626;9.680;2023-05-29T11:06:45;35.50;33.20
298;DHT22;133;49.626;9.680;2023-05-29T11:09:33;34.90;33.70
298;DHT22;133;49.626;9.680;2023-05-29T11:14:59;35.20;33.90
298;DHT22;133;49.626;9.680;2023-05-29T11:19:56;34.80;34.40
298;DHT22;133;49.626;9.680;2023-05-29T11:22:27;34.60;33.30
298;DHT22;133;49.626;9.680;2023-05-29T11:24:59;34.80;34.40
298;DHT22;133;49.626;9.680;2023-05-29T11:27:26;34.70;33.90
298;DHT22;133;49.626;9.680;2023-05-29T11:29:52;34.40;34.60
298;DHT22;133;49.626;9.680;2023-05-29T11:32:22;34.60;34.00
298;DHT22;133;49.626;9.680;2023-05-29T11:34:52;34.50;34.00
298;DHT22;133;49.626;9.680;2023-05-29T11:37:22;34.60;34.40
298;DHT22;133;49.626;9.680;2023-05-29T11:39:48;34.80;34.10
298;DHT22;133;49.626;9.680;2023-05-29T11:42:15;35.40;32.70
298;DHT22;133;49.626;9.680;2023-05-29T11:44:40;35.80;33.10
298;DHT22;133;49.626;9.680;2023-05-29T11:47:07;36.10;33.40
298;DHT22;133;49.626;9.680;2023-05-29T11:49:34;36.10;33.30
298;DHT22;133;49.626;9.680;2023-05-29T11:52:11;36.50;33.50
298;DHT22;133;49.626;9.680;2023-05-29T11:54:37;36.40;33.50
298;DHT22;133;49.626;9.680;2023-05-29T11:57:03;36.00;33.00
298;DHT22;133;49.626;9.680;2023-05-29T11:59:34;35.60;33.90
298;DHT22;133;49.626;9.680;2023-05-29T12:02:03;35.30;34.50
298;DHT22;133;49.626;9.680;2023-05-29T12:04:29;35.80;34.00
298;DHT22;133;49.626;9.680;2023-05-29T12:06:55;36.20;32.60
298;DHT22;133;49.626;9.680;2023-05-29T12:09:27;36.20;33.50
298;DHT22;133;49.626;9.680;2023-05-29T12:12:00;36.70;33.30
298;DHT22;133;49.626;9.680;2023-05-29T12:14:26;37.20;33.20
298;DHT22;133;49.626;9.680;2023-05-29T12:16:52;36.30;33.10
298;DHT22;133;49.626;9.680;2023-05-29T12:19:17;36.80;32.60
298;DHT22;133;49.626;9.680;2023-05-29T12:21:43;36.70;32.50
298;DHT22;133;49.626;9.680;2023-05-29T12:24:10;36.40;32.80
298;DHT22;133;49.626;9.680;2023-05-29T12:26:35;36.20;33.60
298;DHT22;133;49.626;9.680;2023-05-29T12:29:05;36.40;33.40
298;DHT22;133;49.626;9.680;2023-05-29T12:31:31;36.60;32.60
298;DHT22;133;49.626;9.680;2023-05-29T12:34:08;36.60;33.00
298;DHT22;133;49.626;9.680;2023-05-29T12:36:35;37.10;32.80
298;DHT22;133;49.626;9.680;2023-05-29T12:39:06;37.40;31.00
298;DHT22;133;49.626;9.680;2023-05-29T12:41:34;36.80;32.40
298;DHT22;133;49.626;9.680;2023-05-29T12:44:03;36.40;32.50
298;DHT22;133;49.626;9.680;2023-05-29T12:46:37;36.10;32.70
298;DHT22;133;49.626;9.680;2023-05-29T12:49:16;35.80;33.00
298;DHT22;133;49.626;9.680;2023-05-29T12:51:43;36.20;32.80
298;DHT22;133;49.626;9.680;2023-05-29T12:54:17;36.30;32.30
298;DHT22;133;49.626;9.680;2023-05-29T12:56:43;35.60;33.40
298;DHT22;133;49.626;9.680;2023-05-29T12:59:10;36.20;33.40
298;DHT22;133;49.626;9.680;2023-05-29T13:01:36;36.80;31.90
298;DHT22;133;49.626;9.680;2023-05-29T13:04:06;36.90;32.80
298;DHT22;133;49.626;9.680;2023-05-29T13:06:36;37.10;33.20
298;DHT22;133;49.626;9.680;2023-05-29T13:09:02;37.20;32.50
298;DHT22;133;49.626;9.680;2023-05-29T13:11:28;36.70;32.60
298;DHT22;133;49.626;9.680;2023-05-29T13:13:54;36.80;32.40
298;DHT22;133;49.626;9.680;2023-05-29T13:16:19;36.70;32.70
298;DHT22;133;49.626;9.680;2023-05-29T13:18:45;36.40;33.90
298;DHT22;133;49.626;9.680;2023-05-29T13:21:11;35.50;34.30
298;DHT22;133;49.626;9.680;2023-05-29T13:23:36;35.20;34.80
298;DHT22;133;49.626;9.680;2023-05-29T13:26:04;35.50;33.60
298;DHT22;133;49.626;9.680;2023-05-29T13:28:30;35.30;33.60
298;DHT22;133;49.626;9.680;2023-05-29T13:30:56;35.20;34.70
298;DHT22;133;49.626;9.680;2023-05-29T13:33:21;35.10;34.10
298;DHT22;133;49.626;9.680;2023-05-29T13:35:47;35.00;34.50
298;DHT22;133;49.626;9.680;2023-05-29T13:38:12;35.10;34.70
298;DHT22;133;49.626;9.680;2023-05-29T13:40:38;34.60;35.10
298;DHT22;133;49.626;9.680;2023-05-29T13:43:04;34.30;34.50
298;DHT22;133;49.626;9.680;2023-05-29T13:45:30;34.20;35.30
298;DHT22;133;49.626;9.680;2023-05-29T13:47:56;34.30;34.60
298;DHT22;133;49.626;9.680;2023-05-29T13:50:22;34.50;34.30
298;DHT22;133;49.626;9.680;2023-05-29T13:52:49;34.20;34.20
298;DHT22;133;49.626;9.680;2023-05-29T13:55:15;34.00;34.80
298;DHT22;133;49.626;9.680;2023-05-29T13:57:40;34.20;34.80
298;DHT22;133;49.626;9.680;2023-05-29T14:00:09;34.20;35.20
298;DHT22;133;49.626;9.680;2023-05-29T14:02:35;34.10;34.80
298;DHT22;133;49.626;9.680;2023-05-29T14:05:01;33.60;35.80
298;DHT22;133;49.626;9.680;2023-05-29T14:07:26;33.80;35.20
298;DHT22;133;49.626;9.680;2023-05-29T14:09:52;33.50;35.60
298;DHT22;133;49.626;9.680;2023-05-29T14:12:17;33.50;35.60
298;DHT22;133;49.626;9.680;2023-05-29T14:14:43;33.60;35.90
298;DHT22;133;49.626;9.680;2023-05-29T14:17:09;33.50;35.40
298;DHT22;133;49.626;9.680;2023-05-29T14:19:34;33.60;36.20
298;DHT22;133;49.626;9.680;2023-05-29T14:22:00;33.50;36.40
298;DHT22;133;49.626;9.680;2023-05-29T14:24:27;33.60;36.60
298;DHT22;133;49.626;9.680;2023-05-29T14:26:52;33.60;36.60
298;DHT22;133;49.626;9.680;2023-05-29T14:29:18;33.60;35.90
298;DHT22;133;49.626;9.680;2023-05-29T14:31:44;33.70;35.50
298;DHT22;133;49.626;9.680;2023-05-29T14:34:10;33.60;35.10
298;DHT22;133;49.626;9.680;2023-05-29T14:36:37;33.60;35.80
298;DHT22;133;49.626;9.680;2023-05-29T14:39:05;33.50;35.60
298;DHT22;133;49.626;9.680;2023-05-29T14:41:31;33.40;35.60
298;DHT22;133;49.626;9.680;2023-05-29T14:43:58;33.20;35.30
298;DHT22;133;49.626;9.680;2023-05-29T14:46:25;33.20;35.70
298;DHT22;133;49.626;9.680;2023-05-29T14:48:52;32.90;36.40
298;DHT22;133;49.626;9.680;2023-05-29T14:51:19;32.80;36.80
298;DHT22;133;49.626;9.680;2023-05-29T14:53:46;32.80;36.10
298;DHT22;133;49.626;9.680;2023-05-29T14:56:11;32.70;36.80
298;DHT22;133;49.626;9.680;2023-05-29T14:58:37;32.80;36.50
298;DHT22;133;49.626;9.680;2023-05-29T15:01:03;32.70;36.00
298;DHT22;133;49.626;9.680;2023-05-29T15:03:28;32.70;36.00
298;DHT22;133;49.626;9.680;2023-05-29T15:05:54;32.40;36.40
298;DHT22;133;49.626;9.680;2023-05-29T15:08:20;32.30;35.80
298;DHT22;133;49.626;9.680;2023-05-29T15:10:46;32.30;36.90
298;DHT22;133;49.626;9.680;2023-05-29T15:13:11;32.00;37.40
298;DHT22;133;49.626;9.680;2023-05-29T15:15:37;31.60;37.20
298;DHT22;133;49.626;9.680;2023-05-29T15:18:03;31.20;36.70
298;DHT22;133;49.626;9.680;2023-05-29T15:20:28;31.40;37.70
298;DHT22;133;49.626;9.680;2023-05-29T15:22:54;31.50;38.00
298;DHT22;133;49.626;9.680;2023-05-29T15:25:21;31.70;37.70
298;DHT22;133;49.626;9.680;2023-05-29T15:27:47;31.60;37.60
298;DHT22;133;49.626;9.680;2023-05-29T15:30:17;31.60;36.80
298;DHT22;133;49.626;9.680;2023-05-29T15:32:46;31.50;37.00
298;DHT22;133;49.626;9.680;2023-05-29T15:35:14;31.40;36.40
298;DHT22;133;49.626;9.680;2023-05-29T15:37:41;30.70;37.20
298;DHT22;133;49.626;9.680;2023-05-29T15:40:07;30.50;37.60
298;DHT22;133;49.626;9.680;2023-05-29T15:42:34;30.50;37.70
298;DHT22;133;49.626;9.680;2023-05-29T15:45:02;30.60;37.60
298;DHT22;133;49.626;9.680;2023-05-29T15:47:29;30.60;37.60
298;DHT22;133;49.626;9.680;2023-05-29T15:49:56;30.50;38.70
298;DHT22;133;49.626;9.680;2023-05-29T15:52:22;30.40;37.70
298;DHT22;133;49.626;9.680;2023-05-29T15:54:48;30.50;38.70
298;DHT22;133;49.626;9.680;2023-05-29T15:57:13;30.60;38.60
298;DHT22;133;49.626;9.680;2023-05-29T15:59:39;30.60;38.00
298;DHT22;133;49.626;9.680;2023-05-29T16:02:05;30.50;37.70
298;DHT22;133;49.626;9.680;2023-05-29T16:04:31;30.30;37.90
298;DHT22;133;49.626;9.680;2023-05-29T16:06:57;30.10;38.80
298;DHT22;133;49.626;9.680;2023-05-29T16:09:23;30.20;38.30
298;DHT22;133;49.626;9.680;2023-05-29T16:11:48;30.30;38.70
298;DHT22;133;49.626;9.680;2023-05-29T16:14:14;30.40;37.60
298;DHT22;133;49.626;9.680;2023-05-29T16:16:40;30.30;38.00
298;DHT22;133;49.626;9.680;2023-05-29T16:19:06;30.30;39.50
298;DHT22;133;49.626;9.680;2023-05-29T16:21:32;30.40;39.30
298;DHT22;133;49.626;9.680;2023-05-29T16:23:59;30.30;39.00
298;DHT22;133;49.626;9.680;2023-05-29T16:26:25;30.10;38.30
298;DHT22;133;49.626;9.680;2023-05-29T16:28:53;29.90;39.00
298;DHT22;133;49.626;9.680;2023-05-29T16:31:19;30.00;39.60
298;DHT22;133;49.626;9.680;2023-05-29T16:33:45;29.80;40.00
298;DHT22;133;49.626;9.680;2023-05-29T16:36:11;29.60;40.40
298;DHT22;133;49.626;9.680;2023-05-29T16:38:37;29.50;40.00
298;DHT22;133;49.626;9.680;2023-05-29T16:41:02;29.50;40.50
298;DHT22;133;49.626;9.680;2023-05-29T16:43:29;29.60;40.70
298;DHT22;133;49.626;9.680;2023-05-29T16:45:55;29.50;40.00
298;DHT22;133;49.626;9.680;2023-05-29T16:48:20;29.30;40.20
298;DHT22;133;49.626;9.680;2023-05-29T16:50:46;29.10;40.20